createdAt,value
2023-01-29T00:02:08.004Z,102040.78
2023-01-29T00:04:34.249Z,102049.22
2023-01-29T00:07:00.390Z,102044.06
2023-01-29T00:09:26.559Z,102048.38
2023-01-29T00:11:52.698Z,102040.63
2023-01-29T00:14:18.836Z,102040.50
2023-01-29T00:16:45.171Z,102039.59
2023-01-29T00:19:11.358Z,102042.25
2023-01-29T00:21:37.498Z,102034.50
2023-01-29T00:24:03.726Z,102038.78
2023-01-29T00:26:29.930Z,102030.97
2023-01-29T00:28:56.055Z,102026.72
2023-01-29T00:31:22.476Z,102024.22
2023-01-29T00:33:48.763Z,102025.91
2023-01-29T00:36:14.979Z,102032.78
2023-01-29T00:38:41.167Z,102030.91
2023-01-29T00:41:07.294Z,102032.63
2023-01-29T00:43:33.438Z,102028.34
2023-01-29T00:45:59.621Z,102036.94
2023-01-29T00:48:25.918Z,102034.44
2023-01-29T00:50:52.053Z,102038.75
2023-01-29T00:53:18.205Z,102032.78
2023-01-29T00:55:44.416Z,102030.25
2023-01-29T00:58:10.617Z,102034.50
2023-01-29T01:00:36.886Z,102035.41
2023-01-29T01:03:03.026Z,102043.91
2023-01-29T01:05:30.240Z,102038.75
2023-01-29T01:07:56.414Z,102041.25
2023-01-29T01:10:22.603Z,102043.81
2023-01-29T01:12:48.769Z,102052.44
2023-01-29T01:15:14.924Z,102050.88
2023-01-29T01:17:41.104Z,102043.91
2023-01-29T01:20:07.278Z,102048.09
2023-01-29T01:22:33.457Z,102050.63
2023-01-29T01:24:59.682Z,102049.63
2023-01-29T01:27:25.899Z,102043.72
2023-01-29T01:29:52.066Z,102050.47
2023-01-29T01:32:18.280Z,102047.81
2023-01-29T01:34:44.412Z,102043.44
2023-01-29T01:37:10.597Z,102046.75
2023-01-29T01:39:36.720Z,102047.69
2023-01-29T01:42:02.875Z,102044.34
2023-01-29T01:44:29.051Z,102039.22
2023-01-29T01:46:55.202Z,102044.25
2023-01-29T01:49:21.392Z,102039.94
2023-01-29T01:51:47.557Z,102041.75
2023-01-29T01:54:13.677Z,102039.25
2023-01-29T01:56:39.820Z,102033.25
2023-01-29T01:59:05.980Z,102047.84
2023-01-29T02:01:32.138Z,102039.41
2023-01-29T02:03:58.366Z,102039.44
2023-01-29T02:06:24.560Z,102036.09
2023-01-29T02:08:50.764Z,102037.72
2023-01-29T02:11:16.948Z,102035.13
2023-01-29T02:13:43.092Z,102028.19
2023-01-29T02:16:09.415Z,102035.06
2023-01-29T02:18:35.642Z,102029.97
2023-01-29T02:21:01.807Z,102035.06
2023-01-29T02:23:28.007Z,102029.88
2023-01-29T02:25:54.158Z,102035.88
2023-01-29T02:28:20.327Z,102029.13
2023-01-29T02:30:46.479Z,102034.19
2023-01-29T02:33:12.672Z,102022.25
2023-01-29T02:35:38.812Z,102011.03
2023-01-29T02:38:04.994Z,102016.00
2023-01-29T02:40:31.188Z,102014.06
2023-01-29T02:42:57.333Z,102008.88
2023-01-29T02:45:23.460Z,102005.16
2023-01-29T02:47:49.790Z,102004.00
2023-01-29T02:50:16.314Z,102006.22
2023-01-29T02:52:42.682Z,102005.88
2023-01-29T02:55:08.989Z,102002.19
2023-01-29T02:57:35.134Z,102009.06
2023-01-29T03:00:01.309Z,102002.66
2023-01-29T03:02:27.538Z,102004.97
2023-01-29T03:04:53.715Z,102014.19
2023-01-29T03:07:20.098Z,102007.97
2023-01-29T03:09:46.266Z,102018.72
2023-01-29T03:12:12.456Z,102010.78
2023-01-29T03:14:38.626Z,102012.19
2023-01-29T03:17:04.830Z,102020.56
2023-01-29T03:19:31.053Z,102016.94
2023-01-29T03:21:57.395Z,102008.28
2023-01-29T03:24:23.571Z,102006.38
2023-01-29T03:26:49.754Z,102013.91
2023-01-29T03:29:15.927Z,102021.47
2023-01-29T03:31:42.213Z,102030.72
2023-01-29T03:34:08.484Z,102028.88
2023-01-29T03:36:34.655Z,102035.72
2023-01-29T03:39:00.836Z,102038.25
2023-01-29T03:41:26.981Z,102039.91
2023-01-29T03:43:53.159Z,102038.16
2023-01-29T03:46:19.369Z,102042.38
2023-01-29T03:48:45.574Z,102038.06
2023-01-29T03:51:11.755Z,102040.63
2023-01-29T03:53:37.918Z,102039.16
2023-01-29T03:56:04.091Z,102041.75
2023-01-29T03:58:30.268Z,102033.50
2023-01-29T04:00:56.429Z,102034.25
2023-01-29T04:03:22.606Z,102036.84
2023-01-29T04:05:48.819Z,102042.66
2023-01-29T04:08:14.998Z,102041.72
2023-01-29T04:10:41.153Z,102039.16
2023-01-29T04:13:07.329Z,102043.78
2023-01-29T04:15:33.522Z,102049.09
2023-01-29T04:17:59.704Z,102046.00
2023-01-29T04:20:25.863Z,102056.56
2023-01-29T04:22:52.042Z,102056.56
2023-01-29T04:25:18.173Z,102058.56
2023-01-29T04:27:44.369Z,102050.22
2023-01-29T04:30:10.498Z,102051.94
2023-01-29T04:32:36.671Z,102044.53
2023-01-29T04:35:03.911Z,102043.53
2023-01-29T04:37:30.111Z,102042.69
2023-01-29T04:39:56.236Z,102034.97
2023-01-29T04:42:22.462Z,102041.81
2023-01-29T04:44:48.658Z,102037.53
2023-01-29T04:47:14.866Z,102052.97
2023-01-29T04:49:41.169Z,102048.91
2023-01-29T04:52:07.353Z,102042.34
2023-01-29T04:54:33.563Z,102033.16
2023-01-29T04:56:59.727Z,102035.00
2023-01-29T04:59:25.947Z,102020.53
2023-01-29T05:01:52.164Z,102016.91
2023-01-29T05:04:18.367Z,102002.03
2023-01-29T05:06:44.585Z,102001.78
2023-01-29T05:09:10.774Z,101997.94
2023-01-29T05:11:36.954Z,101996.03
2023-01-29T05:14:03.117Z,102017.28
2023-01-29T05:16:29.255Z,102014.47
2023-01-29T05:18:55.441Z,102002.13
2023-01-29T05:21:21.646Z,101996.63
2023-01-29T05:23:47.825Z,101999.72
2023-01-29T05:26:14.018Z,102020.75
2023-01-29T05:28:40.217Z,102018.91
2023-01-29T05:31:06.492Z,102011.78
2023-01-29T05:33:32.695Z,102021.81
2023-01-29T05:35:58.837Z,102020.94
2023-01-29T05:38:24.997Z,102020.94
2023-01-29T05:40:51.197Z,102030.63
2023-01-29T05:43:17.384Z,102041.06
2023-01-29T05:45:43.600Z,102039.66
2023-01-29T05:48:09.793Z,102043.16
2023-01-29T05:50:35.961Z,102042.53
2023-01-29T05:53:02.205Z,102042.63
2023-01-29T05:55:28.327Z,102037.63
2023-01-29T05:57:54.506Z,102040.22
2023-01-29T06:00:20.708Z,102037.88
2023-01-29T06:02:46.876Z,102032.84
2023-01-29T06:05:13.046Z,102032.88
2023-01-29T06:07:39.247Z,102032.84
2023-01-29T06:10:05.369Z,102033.56
2023-01-29T06:12:31.522Z,102022.47
2023-01-29T06:14:57.686Z,102018.19
2023-01-29T06:17:23.872Z,102014.75
2023-01-29T06:19:50.054Z,102010.41
2023-01-29T06:22:16.260Z,102017.22
2023-01-29T06:24:42.452Z,102022.53
2023-01-29T06:27:08.673Z,102026.78
2023-01-29T06:29:34.920Z,102032.00
2023-01-29T06:32:01.151Z,102029.53
2023-01-29T06:34:27.355Z,102027.72
2023-01-29T06:36:53.563Z,102044.13
2023-01-29T06:39:19.699Z,102050.22
2023-01-29T06:41:45.918Z,102046.22
2023-01-29T06:44:12.123Z,102045.63
2023-01-29T06:46:38.253Z,102039.88
2023-01-29T06:49:04.404Z,102029.72
2023-01-29T06:51:30.554Z,102035.63
2023-01-29T06:53:56.718Z,102029.59
2023-01-29T06:56:22.887Z,102027.69
2023-01-29T06:58:49.053Z,102018.94
2023-01-29T07:01:29.364Z,102029.81
2023-01-29T07:04:01.126Z,102022.84
2023-01-29T07:06:27.290Z,102025.34
2023-01-29T07:08:53.488Z,102031.09
2023-01-29T07:11:19.680Z,102029.25
2023-01-29T07:13:45.884Z,102040.22
2023-01-29T07:16:12.099Z,102039.44
2023-01-29T07:18:38.367Z,102042.06
2023-01-29T07:21:04.493Z,102041.34
2023-01-29T07:23:30.624Z,102049.22
2023-01-29T07:25:56.751Z,102041.53
2023-01-29T07:28:22.882Z,102035.56
2023-01-29T07:30:49.064Z,102040.78
2023-01-29T07:33:15.205Z,102039.91
2023-01-29T07:35:41.390Z,102043.34
2023-01-29T07:38:07.517Z,102024.13
2023-01-29T07:40:33.725Z,102050.31
2023-01-29T07:42:59.918Z,102047.69
2023-01-29T07:45:26.141Z,102046.78
2023-01-29T07:47:52.296Z,102055.31
2023-01-29T07:50:18.762Z,102050.22
2023-01-29T07:52:45.087Z,102059.69
2023-01-29T07:55:11.256Z,102054.44
2023-01-29T07:57:37.438Z,102054.38
2023-01-29T08:00:03.591Z,102069.81
2023-01-29T08:02:29.801Z,102063.88
2023-01-29T08:04:56.036Z,102076.75
2023-01-29T08:07:22.205Z,102076.69
2023-01-29T08:09:48.371Z,102081.84
2023-01-29T08:12:14.529Z,102086.19
2023-01-29T08:14:40.702Z,102076.94
2023-01-29T08:17:06.939Z,102086.50
2023-01-29T08:19:33.073Z,102092.63
2023-01-29T08:21:59.253Z,102095.50
2023-01-29T08:24:31.284Z,102092.34
2023-01-29T08:27:08.016Z,102085.84
2023-01-29T08:29:34.188Z,102078.47
2023-01-29T08:32:00.390Z,102077.91
2023-01-29T08:34:26.632Z,102068.81
2023-01-29T08:36:52.850Z,102066.75
2023-01-29T08:39:19.079Z,102071.31
2023-01-29T08:41:45.221Z,102067.75
2023-01-29T08:44:11.344Z,102064.00
2023-01-29T08:46:37.516Z,102069.31
2023-01-29T08:49:03.650Z,102075.88
2023-01-29T08:51:29.838Z,102075.91
2023-01-29T08:53:55.996Z,102083.88
2023-01-29T08:56:22.143Z,102088.53
2023-01-29T08:58:48.306Z,102087.66
2023-01-29T09:01:14.516Z,102094.72
2023-01-29T09:03:40.716Z,102081.13
2023-01-29T09:06:06.860Z,102069.63
2023-01-29T09:08:33.042Z,102051.84
2023-01-29T09:10:59.196Z,102040.03
2023-01-29T09:13:25.393Z,102019.38
2023-01-29T09:15:51.510Z,102005.59
2023-01-29T09:18:17.708Z,101994.38
2023-01-29T09:20:43.859Z,101988.34
2023-01-29T09:23:10.233Z,101998.56
2023-01-29T09:25:36.485Z,101997.59
2023-01-29T09:28:02.702Z,101996.50
2023-01-29T09:30:28.874Z,102003.72
2023-01-29T09:32:55.331Z,101996.31
2023-01-29T09:35:21.591Z,102005.16
2023-01-29T09:37:47.835Z,102010.41
2023-01-29T09:40:13.980Z,102006.00
2023-01-29T09:42:40.101Z,102019.59
2023-01-29T09:45:06.265Z,102021.59
2023-01-29T09:47:32.391Z,102021.47
2023-01-29T09:49:58.628Z,102027.44
2023-01-29T09:52:24.760Z,102033.41
2023-01-29T09:54:50.908Z,102037.69
2023-01-29T09:57:17.157Z,102041.13
2023-01-29T09:59:43.373Z,102032.63
2023-01-29T10:02:09.723Z,102036.56
2023-01-29T10:04:36.063Z,102051.97
2023-01-29T10:07:02.257Z,102043.38
2023-01-29T10:09:28.445Z,102042.31
2023-01-29T10:11:57.689Z,102060.84
2023-01-29T10:14:24.440Z,102060.78
2023-01-29T10:16:50.632Z,102064.31
2023-01-29T10:19:16.827Z,102063.41
2023-01-29T10:21:43.052Z,102069.34
2023-01-29T10:24:09.229Z,102069.31
2023-01-29T10:26:35.423Z,102064.63
2023-01-29T10:29:01.627Z,102062.16
2023-01-29T10:31:27.964Z,102051.06
2023-01-29T10:34:02.137Z,102047.75
2023-01-29T10:36:28.994Z,102044.41
2023-01-29T10:38:55.156Z,102035.06
2023-01-29T10:41:21.396Z,102035.13
2023-01-29T10:43:47.530Z,102032.72
2023-01-29T10:46:13.744Z,102028.66
2023-01-29T10:48:39.878Z,102012.38
2023-01-29T10:51:06.045Z,102021.75
2023-01-29T10:53:32.212Z,102023.44
2023-01-29T10:55:58.383Z,102017.22
2023-01-29T10:58:24.571Z,102018.88
2023-01-29T11:00:50.679Z,102015.56
2023-01-29T11:03:27.063Z,102008.00
2023-01-29T11:05:54.317Z,101991.75
2023-01-29T11:08:20.522Z,101992.50
2023-01-29T11:10:46.643Z,101983.16
2023-01-29T11:13:12.804Z,101984.94
2023-01-29T11:15:38.969Z,101980.53
2023-01-29T11:18:05.180Z,101985.97
2023-01-29T11:20:31.373Z,101970.94
2023-01-29T11:22:57.528Z,101961.63
2023-01-29T11:25:23.695Z,101963.31
2023-01-29T11:27:49.956Z,101952.03
2023-01-29T11:30:16.313Z,101955.31
2023-01-29T11:32:42.695Z,101956.22
2023-01-29T11:35:08.851Z,101958.59
2023-01-29T11:37:34.994Z,101964.66
2023-01-29T11:40:01.123Z,101960.38
2023-01-29T11:42:27.370Z,101948.34
2023-01-29T11:44:53.518Z,101933.84
2023-01-29T11:47:19.680Z,101925.16
2023-01-29T11:49:45.896Z,101925.97
2023-01-29T11:52:12.061Z,101918.38
2023-01-29T11:54:38.184Z,101906.38
2023-01-29T11:57:04.382Z,101899.50
2023-01-29T11:59:30.553Z,101889.22
2023-01-29T12:01:56.783Z,101885.63
2023-01-29T12:04:22.984Z,101880.53
2023-01-29T12:06:50.244Z,101874.50
2023-01-29T12:09:17.019Z,101879.66
2023-01-29T12:11:43.261Z,101871.06
2023-01-29T12:14:09.395Z,101876.13
2023-01-29T12:16:35.615Z,101877.75
2023-01-29T12:19:01.909Z,101863.06
2023-01-29T12:21:28.109Z,101856.16
2023-01-29T12:23:54.241Z,101852.63
2023-01-29T12:26:20.466Z,101858.75
2023-01-29T12:28:46.624Z,101855.50
2023-01-29T12:31:12.873Z,101852.75
2023-01-29T12:33:39.037Z,101854.53
2023-01-29T12:36:05.212Z,101843.25
2023-01-29T12:38:31.417Z,101842.38
2023-01-29T12:40:57.553Z,101833.84
2023-01-29T12:43:23.696Z,101833.91
2023-01-29T12:45:49.825Z,101838.25
2023-01-29T12:48:15.997Z,101832.22
2023-01-29T12:50:42.187Z,101833.94
2023-01-29T12:53:08.364Z,101830.53
2023-01-29T12:55:34.598Z,101828.81
2023-01-29T12:58:00.794Z,101829.59
2023-01-29T13:00:27.013Z,101833.97
2023-01-29T13:02:53.254Z,101827.94
2023-01-29T13:05:19.454Z,101825.34
2023-01-29T13:07:45.583Z,101818.53
2023-01-29T13:10:11.805Z,101808.25
2023-01-29T13:12:38.021Z,101803.09
2023-01-29T13:15:04.226Z,101799.66
2023-01-29T13:17:30.364Z,101810.75
2023-01-29T13:19:56.518Z,101802.16
2023-01-29T13:22:22.704Z,101802.19
2023-01-29T13:24:58.741Z,101802.13
2023-01-29T13:27:29.632Z,101796.94
2023-01-29T13:29:55.857Z,101800.34
2023-01-29T13:32:22.026Z,101793.41
2023-01-29T13:34:48.167Z,101795.06
2023-01-29T13:37:14.356Z,101795.06
2023-01-29T13:39:40.500Z,101789.94
2023-01-29T13:42:06.694Z,101780.50
2023-01-29T13:44:32.895Z,101783.09
2023-01-29T13:46:59.169Z,101782.22
2023-01-29T13:49:25.319Z,101774.47
2023-01-29T13:51:51.497Z,101781.38
2023-01-29T13:54:17.666Z,101781.31
2023-01-29T13:56:43.870Z,101779.63
2023-01-29T13:59:10.012Z,101775.28
2023-01-29T14:01:36.236Z,101762.41
2023-01-29T14:04:06.061Z,101753.06
2023-01-29T14:06:32.261Z,101751.38
2023-01-29T14:08:58.465Z,101755.66
2023-01-29T14:11:24.596Z,101760.78
2023-01-29T14:13:50.743Z,101761.66
2023-01-29T14:16:16.934Z,101751.28
2023-01-29T14:18:43.165Z,101759.00
2023-01-29T14:21:09.359Z,101759.78
2023-01-29T14:23:35.516Z,101764.88
2023-01-29T14:26:01.766Z,101755.28
2023-01-29T14:28:27.962Z,101757.78
2023-01-29T14:30:54.257Z,101752.50
2023-01-29T14:33:20.630Z,101746.53
2023-01-29T14:35:46.833Z,101754.34
2023-01-29T14:38:13.015Z,101750.00
2023-01-29T14:40:39.185Z,101747.47
2023-01-29T14:43:05.475Z,101750.16
2023-01-29T14:45:31.670Z,101749.31
2023-01-29T14:47:57.813Z,101754.50
2023-01-29T14:50:23.981Z,101756.34
2023-01-29T14:52:52.907Z,101746.13
2023-01-29T14:55:19.321Z,101749.63
2023-01-29T14:57:45.714Z,101747.00
2023-01-29T15:00:11.852Z,101733.28
2023-01-29T15:02:38.129Z,101748.75
2023-01-29T15:05:04.352Z,101746.13
2023-01-29T15:07:30.559Z,101754.78
2023-01-29T15:10:07.923Z,101745.31
2023-01-29T15:12:42.972Z,101738.44
2023-01-29T15:15:09.197Z,101733.41
2023-01-29T15:17:35.376Z,101732.50
2023-01-29T15:20:01.502Z,101732.34
2023-01-29T15:22:27.671Z,101730.41
2023-01-29T15:24:53.827Z,101723.19
2023-01-29T15:27:20.008Z,101719.38
2023-01-29T15:29:46.214Z,101717.28
2023-01-29T15:32:12.400Z,101718.09
2023-01-29T15:34:38.576Z,101706.31
2023-01-29T15:37:04.731Z,101709.09
2023-01-29T15:39:30.909Z,101715.31
2023-01-29T15:41:57.101Z,101719.00
2023-01-29T15:44:23.340Z,101722.22
2023-01-29T15:46:49.540Z,101721.91
2023-01-29T15:49:15.769Z,101733.41
2023-01-29T15:51:41.952Z,101730.78
2023-01-29T15:54:08.163Z,101747.69
2023-01-29T15:56:34.348Z,101750.78
2023-01-29T15:59:00.486Z,101741.81
2023-01-29T16:01:26.695Z,101751.78
2023-01-29T16:03:52.944Z,101741.25
2023-01-29T16:06:19.109Z,101740.97
2023-01-29T16:08:45.243Z,101732.97
2023-01-29T16:11:11.437Z,101730.16
2023-01-29T16:13:37.638Z,101735.09
2023-01-29T16:16:03.841Z,101728.00
2023-01-29T16:18:30.073Z,101717.72
2023-01-29T16:20:56.437Z,101720.16
2023-01-29T16:23:22.647Z,101712.41
2023-01-29T16:25:48.793Z,101711.53
2023-01-29T16:28:15.031Z,101717.19
2023-01-29T16:30:41.314Z,101716.91
2023-01-29T16:33:07.483Z,101719.41
2023-01-29T16:35:33.678Z,101715.66
2023-01-29T16:37:59.901Z,101723.06
2023-01-29T16:40:26.122Z,101719.31
2023-01-29T16:42:52.303Z,101722.50
2023-01-29T16:45:18.904Z,101714.09
2023-01-29T16:47:45.326Z,101714.75
2023-01-29T16:50:11.527Z,101709.38
2023-01-29T16:52:37.685Z,101709.22
2023-01-29T16:55:03.902Z,101699.88
2023-01-29T16:57:30.100Z,101705.69
2023-01-29T16:59:56.259Z,101705.50
2023-01-29T17:02:22.437Z,101694.19
2023-01-29T17:04:48.653Z,101697.50
2023-01-29T17:07:14.930Z,101699.25
2023-01-29T17:09:41.115Z,101696.53
2023-01-29T17:12:07.294Z,101704.88
2023-01-29T17:14:33.493Z,101701.44
2023-01-29T17:16:59.735Z,101702.13
2023-01-29T17:19:25.996Z,101695.13
2023-01-29T17:21:52.244Z,101699.34
2023-01-29T17:24:18.463Z,101705.28
2023-01-29T17:26:44.732Z,101697.56
2023-01-29T17:29:11.064Z,101700.94
2023-01-29T17:31:40.823Z,101704.38
2023-01-29T17:34:06.988Z,101706.09
2023-01-29T17:36:33.133Z,101701.66
2023-01-29T17:38:59.397Z,101713.53
2023-01-29T17:41:25.599Z,101702.44
2023-01-29T17:43:51.793Z,101703.34
2023-01-29T17:46:17.954Z,101712.09
2023-01-29T17:48:44.479Z,101722.50
2023-01-29T17:51:10.681Z,101720.66
2023-01-29T17:53:45.650Z,101735.94
2023-01-29T17:56:12.573Z,101728.03
2023-01-29T17:58:38.730Z,101739.88
2023-01-29T18:01:04.936Z,101744.00
2023-01-29T18:03:31.189Z,101739.75
2023-01-29T18:05:57.393Z,101743.03
2023-01-29T18:08:23.559Z,101748.84
2023-01-29T18:10:49.723Z,101750.47
2023-01-29T18:13:15.915Z,101753.75
2023-01-29T18:15:42.054Z,101758.84
2023-01-29T18:18:09.688Z,101761.38
2023-01-29T18:20:35.920Z,101760.41
2023-01-29T18:23:02.078Z,101768.84
2023-01-29T18:25:28.293Z,101767.09
2023-01-29T18:27:54.456Z,101763.56
2023-01-29T18:30:20.665Z,101754.00
2023-01-29T18:32:46.863Z,101757.41
2023-01-29T18:35:13.136Z,101757.31
2023-01-29T18:37:39.372Z,101764.06
2023-01-29T18:40:05.822Z,101758.94
2023-01-29T18:42:31.994Z,101754.59
2023-01-29T18:44:58.398Z,101746.53
2023-01-29T18:47:24.640Z,101751.84
2023-01-29T18:49:50.840Z,101746.84
2023-01-29T18:52:17.138Z,101750.00
2023-01-29T18:54:43.367Z,101745.75
2023-01-29T18:57:14.016Z,101743.13
2023-01-29T18:59:40.919Z,101745.59
2023-01-29T19:02:07.360Z,101743.81
2023-01-29T19:04:33.590Z,101747.94
2023-01-29T19:06:59.801Z,101742.03
2023-01-29T19:09:26.082Z,101746.28
2023-01-29T19:11:52.637Z,101742.63
2023-01-29T19:14:18.881Z,101735.53
2023-01-29T19:16:45.113Z,101740.44
2023-01-29T19:19:11.359Z,101741.84
2023-01-29T19:21:37.543Z,101732.34
2023-01-29T19:24:03.828Z,101741.56
2023-01-29T19:26:30.339Z,101749.06
2023-01-29T19:28:56.565Z,101737.81
2023-01-29T19:31:22.999Z,101741.13
2023-01-29T19:33:49.195Z,101742.78
2023-01-29T19:36:15.387Z,101748.69
2023-01-29T19:38:41.531Z,101747.81
2023-01-29T19:41:07.746Z,101735.00
2023-01-29T19:43:34.039Z,101734.13
2023-01-29T19:46:00.200Z,101729.78
2023-01-29T19:48:26.432Z,101723.91
2023-01-29T19:50:52.645Z,101728.25
2023-01-29T19:53:18.823Z,101723.53
2023-01-29T19:55:45.073Z,101721.81
2023-01-29T19:58:11.309Z,101726.03
2023-01-29T20:00:37.611Z,101723.34
2023-01-29T20:03:03.806Z,101724.03
2023-01-29T20:05:30.008Z,101725.50
2023-01-29T20:07:56.261Z,101722.81
2023-01-29T20:10:22.488Z,101716.66
2023-01-29T20:12:48.651Z,101718.97
2023-01-29T20:15:14.921Z,101721.47
2023-01-29T20:17:41.354Z,101720.63
2023-01-29T20:20:07.717Z,101727.56
2023-01-29T20:22:33.920Z,101727.41
2023-01-29T20:25:00.137Z,101729.97
2023-01-29T20:27:26.427Z,101720.59
2023-01-29T20:29:52.707Z,101725.53
2023-01-29T20:32:18.998Z,101718.69
2023-01-29T20:34:45.191Z,101718.63
2023-01-29T20:37:11.383Z,101719.50
2023-01-29T20:39:37.606Z,101722.06
2023-01-29T20:42:03.825Z,101718.72
2023-01-29T20:44:30.011Z,101716.25
2023-01-29T20:46:59.678Z,101706.84
2023-01-29T20:49:27.696Z,101705.16
2023-01-29T20:51:53.963Z,101708.47
2023-01-29T20:54:20.146Z,101707.72
2023-01-29T20:56:47.167Z,101704.97
2023-01-29T20:59:13.909Z,101704.06
2023-01-29T21:01:41.036Z,101700.53
2023-01-29T21:04:07.237Z,101707.31
2023-01-29T21:06:33.434Z,101705.56
2023-01-29T21:08:59.627Z,101710.56
2023-01-29T21:11:25.798Z,101710.56
2023-01-29T21:13:52.237Z,101713.91
2023-01-29T21:16:18.573Z,101715.50
2023-01-29T21:18:44.757Z,101712.03
2023-01-29T21:21:10.932Z,101703.66
2023-01-29T21:23:37.084Z,101718.00
2023-01-29T21:26:03.235Z,101714.59
2023-01-29T21:28:30.388Z,101710.34
2023-01-29T21:30:56.592Z,101709.53
2023-01-29T21:33:22.791Z,101712.03
2023-01-29T21:35:48.949Z,101702.63
2023-01-29T21:38:15.062Z,101694.97
2023-01-29T21:40:41.406Z,101693.09
2023-01-29T21:43:07.569Z,101689.69
2023-01-29T21:45:35.471Z,101687.16
2023-01-29T21:48:01.860Z,101689.75
2023-01-29T21:50:27.989Z,101688.16
2023-01-29T21:52:54.146Z,101678.06
2023-01-29T21:55:20.267Z,101684.88
2023-01-29T21:57:46.437Z,101673.97
2023-01-29T22:00:12.618Z,101681.53
2023-01-29T22:02:38.795Z,101671.16
2023-01-29T22:05:18.038Z,101664.44
2023-01-29T22:07:45.213Z,101655.13
2023-01-29T22:10:11.556Z,101646.75
2023-01-29T22:12:37.752Z,101643.00
2023-01-29T22:15:03.920Z,101639.38
2023-01-29T22:17:30.082Z,101634.31
2023-01-29T22:19:56.252Z,101632.16
2023-01-29T22:22:22.453Z,101630.16
2023-01-29T22:24:48.634Z,101629.09
2023-01-29T22:27:14.858Z,101633.31
2023-01-29T22:29:41.042Z,101630.75
2023-01-29T22:32:07.294Z,101631.63
2023-01-29T22:34:33.481Z,101641.00
2023-01-29T22:36:59.699Z,101636.72
2023-01-29T22:39:25.905Z,101630.69
2023-01-29T22:41:52.046Z,101622.94
2023-01-29T22:44:18.241Z,101617.00
2023-01-29T22:46:44.410Z,101622.22
2023-01-29T22:49:10.605Z,101617.94
2023-01-29T22:51:36.759Z,101616.31
2023-01-29T22:54:02.939Z,101617.94
2023-01-29T22:56:29.109Z,101619.59
2023-01-29T22:58:55.302Z,101617.84
2023-01-29T23:01:21.526Z,101609.25
2023-01-29T23:03:47.726Z,101600.81
2023-01-29T23:06:13.905Z,101596.63
2023-01-29T23:08:40.096Z,101596.75
2023-01-29T23:11:06.287Z,101591.78
2023-01-29T23:13:32.411Z,101583.53
2023-01-29T23:15:58.633Z,101575.28
2023-01-29T23:18:24.860Z,101581.38
2023-01-29T23:20:51.001Z,101577.34
2023-01-29T23:23:17.187Z,101572.59
2023-01-29T23:25:43.443Z,101567.94
2023-01-29T23:28:09.678Z,101563.88
2023-01-29T23:30:35.851Z,101573.69
2023-01-29T23:33:02.202Z,101574.03
2023-01-29T23:35:28.407Z,101570.88
2023-01-29T23:37:54.615Z,101572.13
2023-01-29T23:40:20.833Z,101570.94
2023-01-29T23:42:47.043Z,101564.59
2023-01-29T23:45:13.240Z,101550.50
2023-01-29T23:47:39.396Z,101543.13
2023-01-29T23:50:05.609Z,101531.56
2023-01-29T23:52:31.763Z,101529.03
2023-01-29T23:54:57.903Z,101536.81
2023-01-29T23:57:24.080Z,101531.53
2023-01-29T23:59:50.229Z,101545.94
